• Join FlightAware (Why Join?)
  • Login
  • US Flag 
06:44AM EDT


 

Airport Tracker/Info


-or-


 

Live Flight TrackerFlight Track Log ✈ LYM752 ✈ 02-Jan-2014 ✈ KCBK - KGCK

Flight Track Log - Related Links

Times and Time Zones

All times are in EST time to prevent confusion due to time zone crossing. See the LYM752 flight status page for this flight to view local times or setup timezone preferences in your user account.

Time Position Orientation Groundspeed Altitude Reporting Facility
EST Latitude Longitude Course Direction KTS MPH feet Rate Location/Type
11:31AM 39.2531 -101.0122 172° South 141 162 7,900  Level Denver Center
11:32AM 39.2053 -101.0031 172° South 153 176 8,800 480 Climbing Denver Center
11:33AM 39.1544 -100.9925 171° South 186 214 8,900  Climbing Denver Center
11:34AM 39.0889 -100.9750 168° South 209 241 8,900  Level Denver Center
11:35AM 39.0328 -100.9581 167° South 213 245 8,900  Level Denver Center
11:36AM 38.9658 -100.9428 170° South 214 246 8,900  Level Denver Center
11:37AM 38.9097 -100.9286 169° South 214 246 8,900  Level Denver Center
11:38AM 38.8442 -100.9167 172° South 213 245 8,900  Level Denver Center
11:39AM 38.7881 -100.9022 169° South 213 245 8,900  Level Denver Center
11:40AM 38.7228 -100.8911 172° South 213 245 8,900  Level Denver Center
11:41AM 38.6675 -100.8800 171° South 211 243 8,900  Level Denver Center
11:42AM 38.6125 -100.8664 169° South 210 242 8,900 -60 Level Denver Center
11:43AM 38.5486 -100.8508 169° South 209 241 8,800  Descending Denver Center
11:44AM 38.4942 -100.8372 169° South 209 241 8,900  Climbing Denver Center
11:45AM 38.4306 -100.8289 174° South 207 238 8,900  Level Denver Center
11:46AM 38.3764 -100.8128 167° South 207 238 8,900  Level Denver Center
11:47AM 38.3133 -100.7944 167° South 207 238 8,900 -180 Level Denver Center
11:48AM 38.2589 -100.7814 169° South 207 238 8,600 -600 Descending Denver Center
11:49AM 38.1914 -100.7667 170° South 214 246 7,700 -840 Descending Denver Center
11:51AM 38.1331 -100.7486 166° South 220 253 6,900 -840 Descending Denver Center
11:52AM 38.0542 -100.7153 162° South 211 243 5,800 -780 Descending Kansas City Center
11:53AM 38.0019 -100.6950 163° South 207 238 5,100 -780 Descending Kansas City Center
11:54AM 37.9517 -100.6747 162° South 203 234 4,300 -780 Descending Kansas City Center
11:55AM 37.9131 -100.6953 203° Southwest 155 178 3,500 -780 Descending Kansas City Center